createdAt,value
2022-07-26T00:01:49.352Z,0.73
2022-07-26T00:04:16.877Z,0.80
2022-07-26T00:06:44.904Z,0.80
2022-07-26T00:09:11.973Z,1.93
2022-07-26T00:11:38.967Z,0.70
2022-07-26T00:14:07.250Z,0.70
2022-07-26T00:16:36.598Z,0.70
2022-07-26T00:19:07.506Z,0.80
2022-07-26T00:21:36.936Z,0.70
2022-07-26T00:24:09.420Z,0.70
2022-07-26T00:26:37.398Z,0.70
2022-07-26T00:29:06.618Z,0.70
2022-07-26T00:31:34.053Z,0.70
2022-07-26T00:34:02.035Z,0.67
2022-07-26T00:36:29.779Z,0.70
2022-07-26T00:38:58.210Z,0.60
2022-07-26T00:41:25.878Z,0.60
2022-07-26T00:44:00.316Z,0.67
2022-07-26T00:46:29.153Z,0.70
2022-07-26T00:48:57.107Z,0.60
2022-07-26T00:51:24.906Z,0.60
2022-07-26T00:53:52.783Z,0.60
2022-07-26T00:56:21.846Z,0.60
2022-07-26T00:58:49.095Z,0.60
2022-07-26T01:01:17.176Z,0.90
2022-07-26T01:03:45.057Z,1.00
2022-07-26T01:06:13.033Z,0.63
2022-07-26T01:08:40.032Z,0.60
2022-07-26T01:11:08.194Z,0.60
2022-07-26T01:13:35.961Z,0.60
2022-07-26T01:16:04.317Z,0.60
2022-07-26T01:18:31.984Z,0.60
2022-07-26T01:21:08.986Z,0.60
2022-07-26T01:23:42.220Z,0.70
2022-07-26T01:26:10.591Z,0.70
2022-07-26T01:28:40.217Z,0.87
2022-07-26T01:31:09.091Z,0.60
2022-07-26T01:33:37.355Z,3.80
2022-07-26T01:36:05.711Z,0.60
2022-07-26T01:38:33.003Z,1.43
2022-07-26T01:41:01.487Z,0.60
2022-07-26T01:43:29.972Z,0.60
2022-07-26T01:45:57.147Z,0.60
2022-07-26T01:48:25.212Z,0.60
2022-07-26T01:50:53.376Z,0.60
2022-07-26T01:53:21.039Z,0.87
2022-07-26T01:55:49.030Z,0.80
2022-07-26T01:58:15.995Z,0.70
2022-07-26T02:00:44.570Z,0.70
2022-07-26T02:03:12.075Z,1.33
2022-07-26T02:05:39.943Z,0.63
2022-07-26T02:08:07.049Z,0.70
2022-07-26T02:10:53.790Z,0.70
2022-07-26T02:13:22.981Z,0.70
2022-07-26T02:15:51.062Z,0.70
2022-07-26T02:18:19.502Z,0.70
2022-07-26T02:20:47.018Z,0.60
2022-07-26T02:23:14.593Z,0.70
2022-07-26T02:25:42.653Z,0.80
2022-07-26T02:28:10.024Z,0.60
2022-07-26T02:30:38.280Z,0.70
2022-07-26T02:33:07.133Z,0.60
2022-07-26T02:35:36.197Z,0.60
2022-07-26T02:38:06.303Z,0.60
2022-07-26T02:40:35.685Z,0.70
2022-07-26T02:43:03.380Z,2.20
2022-07-26T02:45:31.205Z,2.10
2022-07-26T02:47:59.578Z,0.80
2022-07-26T02:50:28.468Z,2.37
2022-07-26T02:52:56.618Z,0.60
2022-07-26T02:55:25.613Z,0.70
2022-07-26T02:57:54.192Z,0.80
2022-07-26T03:00:25.617Z,1.87
2022-07-26T03:02:54.703Z,1.53
2022-07-26T03:05:22.509Z,0.70
2022-07-26T03:07:50.874Z,1.10
2022-07-26T03:10:18.320Z,0.60
2022-07-26T03:12:46.524Z,0.80
2022-07-26T03:15:14.016Z,0.60
2022-07-26T03:17:41.090Z,0.93
2022-07-26T03:20:09.996Z,3.37
2022-07-26T03:22:37.000Z,1.70
2022-07-26T03:25:05.392Z,1.00
2022-07-26T03:27:33.318Z,1.90
2022-07-26T03:30:01.179Z,1.17
2022-07-26T03:32:29.627Z,1.07
2022-07-26T03:34:57.026Z,0.50
2022-07-26T03:37:25.293Z,0.80
2022-07-26T03:39:53.085Z,0.70
2022-07-26T03:42:21.294Z,1.27
2022-07-26T03:44:48.996Z,0.90
2022-07-26T03:47:17.264Z,0.60
2022-07-26T03:49:45.219Z,0.80
2022-07-26T03:52:12.248Z,0.90
2022-07-26T03:54:40.052Z,1.03
2022-07-26T03:57:08.095Z,0.60
2022-07-26T03:59:35.137Z,0.70
2022-07-26T04:02:03.841Z,2.60
2022-07-26T04:04:31.133Z,0.93
2022-07-26T04:07:03.756Z,0.50
2022-07-26T04:09:30.976Z,1.20
2022-07-26T04:11:58.237Z,0.50
2022-07-26T04:14:26.868Z,0.50
2022-07-26T04:16:54.077Z,1.10
2022-07-26T04:19:22.466Z,0.60
2022-07-26T04:21:50.660Z,0.50
2022-07-26T04:24:18.050Z,2.30
2022-07-26T04:26:46.390Z,1.63
2022-07-26T04:29:15.256Z,0.80
2022-07-26T04:31:43.058Z,1.20
2022-07-26T04:34:11.356Z,0.77
2022-07-26T04:36:39.138Z,0.50
2022-07-26T04:39:07.718Z,0.50
2022-07-26T04:41:35.671Z,0.50
2022-07-26T04:44:03.765Z,0.70
2022-07-26T04:46:31.120Z,5.20
2022-07-26T04:48:59.802Z,0.50
2022-07-26T04:51:27.143Z,0.80
2022-07-26T04:53:55.639Z,0.57
2022-07-26T04:56:23.664Z,0.50
2022-07-26T04:58:51.756Z,0.60
2022-07-26T05:01:19.667Z,0.50
2022-07-26T05:03:48.241Z,0.60
2022-07-26T05:06:15.738Z,0.53
2022-07-26T05:08:44.510Z,0.80
2022-07-26T05:11:12.464Z,0.73
2022-07-26T05:13:41.177Z,0.60
2022-07-26T05:16:11.830Z,0.63
2022-07-26T05:18:48.760Z,0.70
2022-07-26T05:21:19.027Z,0.70
2022-07-26T05:23:46.199Z,0.60
2022-07-26T05:26:14.727Z,1.83
2022-07-26T05:28:42.192Z,0.77
2022-07-26T05:31:10.369Z,2.20
2022-07-26T05:33:38.182Z,1.33
2022-07-26T05:36:06.423Z,0.80
2022-07-26T05:38:34.595Z,0.70
2022-07-26T05:41:03.101Z,0.70
2022-07-26T05:43:39.556Z,0.70
2022-07-26T05:46:11.348Z,0.80
2022-07-26T05:48:39.754Z,0.63
2022-07-26T05:51:08.642Z,0.77
2022-07-26T05:53:36.808Z,0.80
2022-07-26T05:56:05.969Z,0.90
2022-07-26T05:58:34.184Z,0.93
2022-07-26T06:01:01.143Z,0.90
2022-07-26T06:03:32.769Z,0.80
2022-07-26T06:06:00.174Z,1.17
2022-07-26T06:08:28.590Z,1.70
2022-07-26T06:10:56.382Z,1.67
2022-07-26T06:13:24.626Z,1.87
2022-07-26T06:15:54.027Z,2.43
2022-07-26T06:18:22.021Z,2.27
2022-07-26T06:20:51.921Z,2.30
2022-07-26T06:23:34.220Z,2.50
2022-07-26T06:26:04.830Z,2.60
2022-07-26T06:28:33.871Z,2.80
2022-07-26T06:31:01.363Z,3.50
2022-07-26T06:33:30.073Z,2.43
2022-07-26T06:35:59.140Z,2.53
2022-07-26T06:38:26.229Z,2.40
2022-07-26T06:40:54.417Z,2.10
2022-07-26T06:43:22.221Z,2.33
2022-07-26T06:45:50.660Z,2.60
2022-07-26T06:48:18.144Z,3.03
2022-07-26T06:50:46.331Z,3.00
2022-07-26T06:53:13.311Z,3.10
2022-07-26T06:55:41.973Z,2.97
2022-07-26T06:58:11.536Z,3.00
2022-07-26T07:00:39.652Z,3.80
2022-07-26T07:03:08.684Z,3.23
2022-07-26T07:05:36.362Z,3.43
2022-07-26T07:08:05.006Z,4.03
2022-07-26T07:10:34.212Z,4.40
2022-07-26T07:13:02.994Z,4.10
2022-07-26T07:15:31.494Z,3.83
2022-07-26T07:17:59.606Z,3.93
2022-07-26T07:20:28.403Z,3.83
2022-07-26T07:22:56.182Z,4.40
2022-07-26T07:25:30.356Z,5.50
2022-07-26T07:28:00.311Z,5.17
2022-07-26T07:30:28.511Z,5.87
2022-07-26T07:32:56.576Z,5.90
2022-07-26T07:35:24.889Z,5.97
2022-07-26T07:37:59.974Z,6.47
2022-07-26T07:40:28.486Z,6.80
2022-07-26T07:42:58.467Z,7.63
2022-07-26T07:45:26.767Z,7.60
2022-07-26T07:47:54.323Z,6.97
2022-07-26T07:50:22.553Z,6.50
2022-07-26T07:52:54.299Z,8.20
2022-07-26T07:55:41.240Z,8.60
2022-07-26T07:58:10.259Z,6.60
2022-07-26T08:00:39.114Z,7.63
2022-07-26T08:03:06.215Z,6.10
2022-07-26T08:05:34.718Z,6.50
2022-07-26T08:08:08.247Z,8.03
2022-07-26T08:10:43.578Z,7.50
2022-07-26T08:13:22.349Z,6.50
2022-07-26T08:15:52.989Z,6.57
2022-07-26T08:18:22.853Z,5.80
2022-07-26T08:20:52.633Z,6.23
2022-07-26T08:23:21.094Z,5.73
2022-07-26T08:25:57.074Z,6.20
2022-07-26T08:31:16.699Z,5.10
2022-07-26T08:33:46.218Z,5.00
2022-07-26T08:36:16.894Z,6.37
2022-07-26T08:38:45.025Z,7.43
2022-07-26T08:41:18.067Z,6.90
2022-07-26T08:43:52.838Z,7.00
2022-07-26T08:46:26.564Z,7.10
2022-07-26T08:48:56.714Z,7.13
2022-07-26T08:51:25.984Z,7.23
2022-07-26T08:54:04.072Z,6.70
2022-07-26T08:56:35.619Z,6.97
2022-07-26T08:59:20.184Z,7.27
2022-07-26T09:01:59.699Z,7.57
2022-07-26T09:04:32.641Z,8.63
2022-07-26T09:07:13.921Z,7.60
2022-07-26T09:09:57.281Z,7.90
2022-07-26T09:12:25.223Z,8.10
2022-07-26T09:14:53.744Z,6.27
2022-07-26T09:17:24.882Z,5.70
2022-07-26T09:20:14.014Z,5.50
2022-07-26T09:23:02.875Z,4.50
2022-07-26T09:25:43.208Z,4.60
2022-07-26T09:28:32.306Z,4.43
2022-07-26T09:31:03.232Z,4.60
2022-07-26T09:33:59.901Z,4.73
2022-07-26T09:36:28.144Z,4.43
2022-07-26T09:39:03.290Z,4.40
2022-07-26T09:41:37.361Z,5.23
2022-07-26T09:44:22.405Z,7.67
2022-07-26T09:46:59.494Z,4.33
2022-07-26T09:49:40.228Z,4.13
2022-07-26T09:52:21.442Z,4.17
2022-07-26T09:54:49.904Z,4.40
2022-07-26T09:57:19.725Z,3.90
2022-07-26T09:59:47.978Z,3.60
2022-07-26T10:02:15.512Z,3.70
2022-07-26T10:04:43.707Z,4.80
2022-07-26T10:07:11.622Z,3.90
2022-07-26T10:09:59.027Z,4.10
2022-07-26T10:12:30.718Z,3.80
2022-07-26T10:14:59.104Z,3.80
2022-07-26T10:17:31.566Z,3.90
2022-07-26T10:20:09.162Z,3.40
2022-07-26T10:22:50.617Z,3.17
2022-07-26T10:25:20.909Z,3.40
2022-07-26T10:27:55.057Z,3.90
2022-07-26T10:30:34.412Z,3.67
2022-07-26T10:33:07.840Z,2.70
2022-07-26T10:35:42.190Z,2.83
2022-07-26T10:38:11.761Z,2.80
2022-07-26T10:40:57.329Z,2.90
2022-07-26T10:43:42.614Z,2.60
2022-07-26T10:46:19.402Z,2.80
2022-07-26T10:49:19.167Z,3.10
2022-07-26T10:51:46.486Z,2.83
2022-07-26T10:54:15.334Z,2.80
2022-07-26T10:56:44.138Z,2.93
2022-07-26T10:59:11.420Z,3.13
2022-07-26T11:01:43.422Z,4.00
2022-07-26T11:04:22.841Z,4.70
2022-07-26T11:06:51.849Z,2.97
2022-07-26T11:09:21.013Z,2.70
2022-07-26T11:11:49.631Z,2.40
2022-07-26T11:14:19.287Z,2.10
2022-07-26T11:16:50.288Z,2.13
2022-07-26T11:19:26.038Z,2.20
2022-07-26T11:22:00.861Z,4.23
2022-07-26T11:24:29.850Z,7.03
2022-07-26T11:27:03.444Z,6.63
2022-07-26T11:29:38.999Z,17.03
2022-07-26T11:32:28.788Z,18.00
2022-07-26T11:35:03.058Z,15.67
2022-07-26T11:37:31.873Z,13.83
2022-07-26T11:39:59.788Z,13.63
2022-07-26T11:42:28.438Z,13.73
2022-07-26T11:44:56.829Z,12.47
2022-07-26T11:47:26.358Z,12.47
2022-07-26T11:52:43.535Z,10.23
2022-07-26T11:55:12.384Z,9.70
2022-07-26T11:57:40.436Z,9.00
2022-07-26T12:00:09.178Z,7.87
2022-07-26T12:02:40.590Z,7.23
2022-07-26T12:05:23.120Z,7.13
2022-07-26T12:08:00.296Z,6.23
2022-07-26T12:10:28.988Z,7.30
2022-07-26T12:13:11.375Z,6.00
2022-07-26T12:15:53.425Z,7.13
2022-07-26T12:18:27.907Z,7.43
2022-07-26T12:21:05.676Z,6.07
2022-07-26T12:23:49.082Z,6.50
2022-07-26T12:26:30.926Z,9.27
2022-07-26T12:29:19.923Z,9.40
2022-07-26T12:32:01.985Z,8.70
2022-07-26T12:34:29.721Z,8.03
2022-07-26T12:37:11.670Z,6.80
2022-07-26T12:39:40.609Z,6.23
2022-07-26T12:42:33.279Z,6.20
2022-07-26T12:45:03.738Z,6.40
2022-07-26T12:47:32.158Z,5.50
2022-07-26T12:49:59.493Z,4.60
2022-07-26T12:52:26.986Z,5.30
2022-07-26T12:54:55.371Z,3.83
2022-07-26T12:57:23.275Z,4.00
2022-07-26T12:59:51.673Z,4.17
2022-07-26T13:02:20.473Z,4.53
2022-07-26T13:04:49.875Z,4.57
2022-07-26T13:07:20.145Z,4.20
2022-07-26T13:09:52.327Z,3.90
2022-07-26T13:12:36.943Z,3.20
2022-07-26T13:15:06.233Z,2.90
2022-07-26T13:17:33.693Z,3.30
2022-07-26T13:20:02.635Z,2.97
2022-07-26T13:22:30.700Z,3.17
2022-07-26T13:24:58.817Z,2.67
2022-07-26T13:27:35.524Z,2.73
2022-07-26T13:30:05.958Z,2.80
2022-07-26T13:32:33.789Z,2.60
2022-07-26T13:35:02.801Z,2.43
2022-07-26T13:37:31.989Z,3.93
2022-07-26T13:40:00.633Z,3.40
2022-07-26T13:42:28.457Z,4.00
2022-07-26T13:44:56.593Z,3.80
2022-07-26T13:47:23.701Z,4.00
2022-07-26T13:49:51.616Z,3.30
2022-07-26T13:52:18.721Z,4.10
2022-07-26T13:54:46.773Z,4.37
2022-07-26T13:57:15.936Z,3.40
2022-07-26T13:59:43.853Z,3.67
2022-07-26T14:02:11.576Z,3.10
2022-07-26T14:04:40.181Z,3.20
2022-07-26T14:07:07.470Z,3.10
2022-07-26T14:09:34.665Z,2.97
2022-07-26T14:12:02.748Z,2.80
2022-07-26T14:14:31.126Z,2.97
2022-07-26T14:16:58.874Z,3.10
2022-07-26T14:19:26.753Z,3.10
2022-07-26T14:21:59.178Z,2.63
2022-07-26T14:24:28.508Z,2.53
2022-07-26T14:26:59.134Z,2.70
2022-07-26T14:29:28.100Z,2.50
2022-07-26T14:31:56.245Z,2.33
2022-07-26T14:34:23.553Z,2.20
2022-07-26T14:36:52.051Z,2.40
2022-07-26T14:39:19.901Z,2.40
2022-07-26T14:41:48.553Z,2.03
2022-07-26T14:44:16.816Z,2.70
2022-07-26T14:46:46.646Z,2.40
2022-07-26T14:49:14.854Z,2.37
2022-07-26T14:51:43.918Z,2.23
2022-07-26T14:54:16.155Z,2.20
2022-07-26T14:56:43.490Z,2.27
2022-07-26T14:59:11.785Z,3.07
2022-07-26T15:01:39.679Z,2.60
2022-07-26T15:04:08.118Z,2.30
2022-07-26T15:06:35.527Z,2.23
2022-07-26T15:09:04.513Z,2.37
2022-07-26T15:11:31.770Z,2.03
2022-07-26T15:14:06.641Z,2.20
2022-07-26T15:16:34.931Z,2.20
2022-07-26T15:19:11.118Z,2.10
2022-07-26T15:21:38.785Z,2.10
2022-07-26T15:24:09.918Z,2.20
2022-07-26T15:26:37.697Z,2.40
2022-07-26T15:29:06.022Z,1.73
2022-07-26T15:31:37.329Z,1.80
2022-07-26T15:34:08.430Z,1.90
2022-07-26T15:36:36.735Z,1.80
2022-07-26T15:39:15.999Z,1.80
2022-07-26T15:41:47.112Z,1.93
2022-07-26T15:44:19.673Z,2.00
2022-07-26T15:46:49.960Z,1.70
2022-07-26T15:49:18.066Z,1.77
2022-07-26T15:51:47.705Z,2.00
2022-07-26T15:54:16.476Z,2.40
2022-07-26T15:56:44.062Z,2.37
2022-07-26T15:59:12.463Z,2.30
2022-07-26T16:01:39.862Z,2.07
2022-07-26T16:04:08.581Z,2.10
2022-07-26T16:06:36.667Z,2.40
2022-07-26T16:09:16.554Z,2.10
2022-07-26T16:11:44.862Z,1.90
2022-07-26T16:14:12.952Z,1.90
2022-07-26T16:16:40.768Z,1.83
2022-07-26T16:19:09.074Z,2.00
2022-07-26T16:21:38.040Z,2.37
2022-07-26T16:24:07.724Z,1.90
2022-07-26T16:26:36.518Z,1.80
2022-07-26T16:29:04.791Z,1.80
2022-07-26T16:31:34.218Z,1.70
2022-07-26T16:34:02.029Z,1.73
2022-07-26T16:36:30.027Z,2.00
2022-07-26T16:38:57.746Z,1.40
2022-07-26T16:41:26.007Z,3.83
2022-07-26T16:43:53.682Z,1.70
2022-07-26T16:46:21.915Z,2.10
2022-07-26T16:48:49.741Z,1.80
2022-07-26T16:51:18.137Z,1.70
2022-07-26T16:53:51.332Z,2.07
2022-07-26T16:56:20.087Z,2.30
2022-07-26T16:58:48.441Z,1.50
2022-07-26T17:01:16.785Z,1.50
2022-07-26T17:03:45.064Z,1.60
2022-07-26T17:06:13.687Z,1.60
2022-07-26T17:08:41.829Z,1.90
2022-07-26T17:11:10.322Z,1.77
2022-07-26T17:13:37.709Z,1.63
2022-07-26T17:16:05.723Z,1.70
2022-07-26T17:18:34.088Z,1.70
2022-07-26T17:21:02.567Z,1.77
2022-07-26T17:23:29.736Z,1.50
2022-07-26T17:25:57.708Z,1.70
2022-07-26T17:28:25.727Z,1.73
2022-07-26T17:30:53.928Z,1.60
2022-07-26T17:33:23.214Z,1.43
2022-07-26T17:35:50.753Z,1.53
2022-07-26T17:38:19.173Z,1.60
2022-07-26T17:40:46.755Z,1.60
2022-07-26T17:43:15.562Z,1.60
2022-07-26T17:45:42.795Z,1.50
2022-07-26T17:48:11.217Z,1.57
2022-07-26T17:50:39.292Z,1.50
2022-07-26T17:53:06.803Z,1.47
2022-07-26T17:55:35.290Z,1.60
2022-07-26T17:58:03.482Z,1.50
2022-07-26T18:00:31.542Z,1.60
2022-07-26T18:02:58.855Z,1.63
2022-07-26T18:05:34.216Z,1.70
2022-07-26T18:08:05.007Z,1.70
2022-07-26T18:10:32.678Z,1.53
2022-07-26T18:12:59.806Z,1.60
2022-07-26T18:15:28.114Z,1.50
2022-07-26T18:17:57.755Z,1.50
2022-07-26T18:20:26.089Z,1.40
2022-07-26T18:22:54.623Z,1.47
2022-07-26T18:25:23.297Z,1.60
2022-07-26T18:27:51.419Z,1.50
2022-07-26T18:30:19.137Z,1.40
2022-07-26T18:32:47.622Z,1.40
2022-07-26T18:35:14.804Z,1.30
2022-07-26T18:37:43.093Z,1.30
2022-07-26T18:40:11.030Z,1.40
2022-07-26T18:42:39.280Z,1.40
2022-07-26T18:45:07.464Z,1.33
2022-07-26T18:47:35.879Z,1.30
2022-07-26T18:50:05.558Z,1.67
2022-07-26T18:52:34.558Z,1.30
2022-07-26T18:55:06.742Z,10.17
2022-07-26T18:57:36.447Z,1.40
2022-07-26T19:00:14.466Z,1.30
2022-07-26T19:02:43.771Z,1.20
2022-07-26T19:05:11.492Z,1.40
2022-07-26T19:07:40.072Z,1.27
2022-07-26T19:10:09.805Z,1.30
2022-07-26T19:12:37.515Z,1.20
2022-07-26T19:15:07.344Z,1.43
2022-07-26T19:17:35.848Z,1.20
2022-07-26T19:20:05.450Z,1.30
2022-07-26T19:22:34.126Z,1.20
2022-07-26T19:25:03.718Z,1.30
2022-07-26T19:27:32.112Z,1.47
2022-07-26T19:29:59.641Z,1.30
2022-07-26T19:32:33.161Z,1.30
2022-07-26T19:35:01.650Z,1.40
2022-07-26T19:37:30.143Z,1.40
2022-07-26T19:40:02.980Z,1.30
2022-07-26T19:42:32.142Z,1.40
2022-07-26T19:45:00.237Z,1.40
2022-07-26T19:47:29.878Z,1.33
2022-07-26T19:49:58.830Z,1.30
2022-07-26T19:52:26.232Z,1.20
2022-07-26T19:54:54.645Z,1.30
2022-07-26T19:57:21.774Z,1.27
2022-07-26T19:59:50.299Z,1.30
2022-07-26T20:02:18.640Z,1.40
2022-07-26T20:04:46.314Z,1.40
2022-07-26T20:07:19.687Z,1.30
2022-07-26T20:09:48.540Z,1.30
2022-07-26T20:12:16.294Z,1.10
2022-07-26T20:14:44.231Z,1.27
2022-07-26T20:17:13.463Z,1.20
2022-07-26T20:19:41.654Z,1.10
2022-07-26T20:22:08.927Z,1.20
2022-07-26T20:24:38.210Z,1.37
2022-07-26T20:27:07.290Z,1.20
2022-07-26T20:29:35.806Z,1.30
2022-07-26T20:32:04.076Z,1.30
2022-07-26T20:34:31.731Z,1.30
2022-07-26T20:37:00.009Z,1.20
2022-07-26T20:39:27.877Z,1.20
2022-07-26T20:41:57.174Z,1.10
2022-07-26T20:44:28.174Z,1.10
2022-07-26T20:46:55.799Z,1.37
2022-07-26T20:49:23.978Z,1.10
2022-07-26T20:51:51.762Z,1.10
2022-07-26T20:54:18.854Z,1.17
2022-07-26T20:56:46.786Z,1.20
2022-07-26T20:59:14.118Z,1.10
2022-07-26T21:01:44.104Z,1.20
2022-07-26T21:04:12.087Z,1.20
2022-07-26T21:06:40.222Z,1.20
2022-07-26T21:09:08.994Z,2.13
2022-07-26T21:11:38.687Z,1.20
2022-07-26T21:14:06.964Z,5.73
2022-07-26T21:16:35.115Z,1.20
2022-07-26T21:19:04.403Z,1.20
2022-07-26T21:21:34.024Z,1.40
2022-07-26T21:24:02.386Z,1.40
2022-07-26T21:26:30.547Z,1.30
2022-07-26T21:28:57.988Z,1.20
2022-07-26T21:31:26.633Z,1.30
2022-07-26T21:33:55.181Z,1.20
2022-07-26T21:36:23.299Z,1.10
2022-07-26T21:38:52.145Z,1.20
2022-07-26T21:41:20.674Z,1.30
2022-07-26T21:43:49.153Z,1.30
2022-07-26T21:46:17.300Z,1.30
2022-07-26T21:48:44.859Z,1.20
2022-07-26T21:51:13.116Z,1.40
2022-07-26T21:53:40.804Z,2.00
2022-07-26T21:56:09.365Z,1.20
2022-07-26T21:58:37.252Z,1.20
2022-07-26T22:01:07.577Z,1.20
2022-07-26T22:03:36.567Z,1.37
2022-07-26T22:06:04.675Z,1.40
2022-07-26T22:08:33.843Z,1.40
2022-07-26T22:11:01.342Z,1.30
2022-07-26T22:13:29.500Z,1.30
2022-07-26T22:15:57.845Z,1.30
2022-07-26T22:18:26.222Z,1.20
2022-07-26T22:20:54.665Z,1.10
2022-07-26T22:23:23.132Z,1.13
2022-07-26T22:25:50.990Z,1.13
2022-07-26T22:28:19.076Z,1.20
2022-07-26T22:30:48.521Z,1.10
2022-07-26T22:33:15.814Z,1.00
2022-07-26T22:35:44.258Z,1.10
2022-07-26T22:38:12.384Z,1.00
2022-07-26T22:40:42.493Z,1.20
2022-07-26T22:43:10.888Z,1.10
2022-07-26T22:45:39.115Z,1.20
2022-07-26T22:48:09.271Z,1.30
2022-07-26T22:50:37.621Z,1.30
2022-07-26T22:53:06.076Z,1.30
2022-07-26T22:55:34.436Z,1.33
2022-07-26T22:58:01.812Z,1.23
2022-07-26T23:00:30.037Z,1.10
2022-07-26T23:02:57.875Z,1.30
2022-07-26T23:05:39.903Z,1.53
2022-07-26T23:08:44.167Z,1.20
2022-07-26T23:11:01.894Z,1.13
2022-07-26T23:13:30.190Z,1.00
2022-07-26T23:16:00.898Z,1.10
2022-07-26T23:18:33.200Z,1.20
2022-07-26T23:21:01.664Z,1.20
2022-07-26T23:23:31.991Z,1.00
2022-07-26T23:25:59.890Z,1.10
2022-07-26T23:28:37.293Z,1.10
2022-07-26T23:31:07.997Z,1.10
2022-07-26T23:33:53.006Z,1.10
2022-07-26T23:36:23.673Z,1.77
2022-07-26T23:38:52.162Z,1.10
2022-07-26T23:41:19.931Z,1.10
2022-07-26T23:43:48.350Z,1.10
2022-07-26T23:46:16.342Z,1.10
2022-07-26T23:48:45.150Z,1.50
2022-07-26T23:51:13.227Z,1.17
2022-07-26T23:53:41.371Z,1.10
2022-07-26T23:56:09.697Z,1.10
2022-07-26T23:58:37.720Z,1.10
